Time;durP1;ratioP1;P1;durP2;ratioP2;P2;SDS_P1;SDS_P2;PMS_P1;PMS_P2;Temp;Humidity;BMP_temperature;BMP_pressure;BME280_temperature;BME280_humidity;BME280_pressure;Samples;Min_cycle;Max_cycle;Signal;HPM_P1;HPM_P2
2022/06/20 00:02:17;;;;;;;9.60;5.05;;;16.80;73.90;;;;;;2373437;56;21126;-76
2022/06/20 00:04:45;;;;;;;7.60;5.10;;;16.80;73.70;;;;;;2373739;56;21126;-76
2022/06/20 00:07:13;;;;;;;7.40;4.95;;;16.70;73.60;;;;;;2374037;56;21082;-76
2022/06/20 00:09:41;;;;;;;13.20;6.32;;;16.70;73.70;;;;;;2372997;56;21055;-76
2022/06/20 00:12:14;;;;;;;9.35;4.80;;;16.70;73.60;;;;;;2373875;56;21588;-75
2022/06/20 00:14:41;;;;;;;10.57;5.43;;;16.70;73.50;;;;;;2372975;56;21027;-78
2022/06/20 00:17:13;;;;;;;8.02;5.53;;;16.70;73.60;;;;;;2373915;56;21130;-76
2022/06/20 00:19:42;;;;;;;8.15;4.62;;;16.70;73.80;;;;;;2372792;56;21046;-75
2022/06/20 00:22:10;;;;;;;7.57;4.70;;;16.60;73.90;;;;;;2373725;56;21328;-76
2022/06/20 00:24:38;;;;;;;7.00;4.82;;;16.60;74.10;;;;;;2373800;56;21039;-76
2022/06/20 00:27:06;;;;;;;9.00;5.30;;;16.60;74.00;;;;;;2373018;56;21042;-75
2022/06/20 00:29:34;;;;;;;7.18;4.82;;;16.60;73.80;;;;;;2626114;52;21023;-75
2022/06/20 00:32:02;;;;;;;7.00;4.78;;;16.60;73.70;;;;;;2372364;56;21031;-75
2022/06/20 00:34:30;;;;;;;10.65;5.35;;;16.60;73.80;;;;;;2373651;56;21070;-76
2022/06/20 00:36:57;;;;;;;7.47;4.85;;;16.60;73.70;;;;;;2372240;56;21043;-75
2022/06/20 00:39:25;;;;;;;10.00;5.32;;;16.60;73.50;;;;;;2374056;56;21043;-75
2022/06/20 00:41:53;;;;;;;10.13;5.87;;;16.60;73.30;;;;;;2373398;56;21043;-73
2022/06/20 00:44:26;;;;;;;9.27;4.45;;;16.60;73.00;;;;;;2373390;56;21502;-76
2022/06/20 00:46:59;;;;;;;8.90;5.05;;;16.60;73.20;;;;;;2626307;52;21645;-76
2022/06/20 00:49:30;;;;;;;9.27;5.10;;;16.60;73.00;;;;;;2373364;56;21597;-75
2022/06/20 00:52:03;;;;;;;7.65;5.05;;;16.60;73.20;;;;;;2373040;56;21055;-75
2022/06/20 00:54:36;;;;;;;11.25;4.60;;;16.60;74.40;;;;;;2373547;56;21051;-74
2022/06/20 00:57:10;;;;;;;7.45;5.03;;;16.60;73.80;;;;;;2372764;56;21123;-75
2022/06/20 00:59:38;;;;;;;;;;;16.50;73.70;;;;;;2375959;56;21043;-74
2022/06/20 01:02:07;;;;;;;12.23;4.95;;;16.70;73.60;;;;;;2371946;56;20113;-75
2022/06/20 01:04:42;;;;;;;9.77;5.32;;;16.50;73.10;;;;;;2625974;52;21490;-75
2022/06/20 01:07:15;;;;;;;9.00;4.60;;;16.50;73.50;;;;;;2372783;56;21039;-74
2022/06/20 01:09:49;;;;;;;7.53;5.03;;;16.50;73.80;;;;;;2373119;56;21113;-75
2022/06/20 01:12:20;;;;;;;10.73;5.75;;;16.40;73.80;;;;;;2371676;56;21098;-74
2022/06/20 01:14:47;;;;;;;8.52;5.70;;;16.50;73.70;;;;;;2624944;52;21517;-76
2022/06/20 01:17:21;;;;;;;6.97;4.57;;;16.40;73.40;;;;;;2372735;56;21046;-74
2022/06/20 01:19:55;;;;;;;6.93;4.40;;;16.40;73.50;;;;;;2372730;56;21110;-76
2022/06/20 01:22:27;;;;;;;;;;;16.40;73.70;;;;;;2376676;56;21090;-76
2022/06/20 01:25:07;;;;;;;7.65;4.37;;;16.50;73.60;;;;;;2626310;52;20595;-75
2022/06/20 01:27:39;;;;;;;5.40;4.18;;;16.50;73.10;;;;;;2373334;56;21034;-74
2022/06/20 01:30:08;;;;;;;8.77;5.15;;;16.50;73.60;;;;;;2626724;52;21644;-75
2022/06/20 01:32:38;;;;;;;6.78;4.87;;;16.40;73.90;;;;;;2372290;56;21023;-74
2022/06/20 01:35:09;;;;;;;7.78;4.20;;;16.40;73.80;;;;;;2373245;56;21110;-75
2022/06/20 01:37:41;;;;;;;8.70;5.03;;;16.40;74.00;;;;;;2372555;56;21046;-75
2022/06/20 01:40:12;;;;;;;7.78;4.72;;;16.40;73.90;;;;;;2372169;56;21130;-74
2022/06/20 01:42:42;;;;;;;8.95;4.65;;;16.30;73.90;;;;;;2372877;56;21043;-75
2022/06/20 01:48:04;;;;;;;7.15;4.78;;;16.30;74.00;;;;;;2624266;52;21034;-75
2022/06/20 01:50:33;;;;;;;8.13;4.80;;;16.30;73.90;;;;;;2373536;56;21531;-76
2022/06/20 01:53:02;;;;;;;6.20;4.53;;;16.30;74.10;;;;;;2373433;56;21039;-75
2022/06/20 01:55:30;;;;;;;7.57;5.55;;;16.30;74.20;;;;;;2372950;56;21098;-74
2022/06/20 01:58:05;;;;;;;6.20;4.20;;;16.30;74.00;;;;;;2374014;56;21130;-74
2022/06/20 02:00:33;;;;;;;8.23;4.95;;;16.20;73.90;;;;;;2373834;56;21118;-75
2022/06/20 02:03:05;;;;;;;7.57;4.55;;;16.30;73.90;;;;;;2374440;56;21614;-76
2022/06/20 02:05:34;;;;;;;8.65;4.85;;;16.30;73.80;;;;;;2371465;56;21101;-75
2022/06/20 02:08:05;;;;;;;7.37;4.75;;;16.30;73.60;;;;;;2373341;56;21126;-74
2022/06/20 02:10:51;;;;;;;5.85;4.40;;;16.30;73.60;;;;;;2374291;56;21110;-76
2022/06/20 02:13:21;;;;;;;6.22;3.65;;;16.30;73.50;;;;;;2627151;52;21502;-75
2022/06/20 02:18:31;;;;;;;9.57;4.12;;;16.30;73.50;;;;;;2327973;57;22147;-75
2022/06/20 02:21:01;;;;;;;11.88;4.87;;;16.30;73.30;;;;;;2347510;57;21101;-75
2022/06/20 02:23:34;;;;;;;8.82;4.22;;;16.30;73.10;;;;;;2347652;57;21094;-75
2022/06/20 02:26:05;;;;;;;8.82;4.20;;;16.30;72.80;;;;;;2346534;57;21046;-75
2022/06/20 02:28:38;;;;;;;6.37;3.20;;;16.30;72.70;;;;;;2346849;57;21053;-75
2022/06/20 02:33:44;;;;;;;8.60;3.83;;;16.30;72.70;;;;;;2355232;57;22552;-75
2022/06/20 02:36:12;;;;;;;8.63;4.85;;;16.20;72.40;;;;;;2346821;57;21437;-75
2022/06/20 02:38:40;;;;;;;7.18;4.03;;;16.20;72.30;;;;;;2352475;56;21055;-75
2022/06/20 02:41:09;;;;;;;9.52;4.15;;;16.20;72.20;;;;;;2374461;56;21058;-74
2022/06/20 02:43:41;;;;;;;9.77;4.05;;;16.20;72.10;;;;;;2375211;56;21636;-75
2022/06/20 02:46:12;;;;;;;10.30;4.87;;;16.20;72.00;;;;;;2374379;56;21094;-75
2022/06/20 02:48:43;;;;;;;7.85;4.30;;;16.10;71.90;;;;;;2627249;52;21126;-75
2022/06/20 02:51:16;;;;;;;6.90;4.18;;;16.10;72.00;;;;;;2375041;56;21509;-75
2022/06/20 02:53:48;;;;;;;6.97;4.07;;;16.10;72.10;;;;;;2374572;56;21122;-75
2022/06/20 02:56:19;;;;;;;5.72;3.22;;;16.10;72.10;;;;;;2374644;56;21063;-76
2022/06/20 02:58:51;;;;;;;6.53;3.70;;;16.10;72.20;;;;;;2374108;56;21037;-75
2022/06/20 03:01:24;;;;;;;8.57;3.90;;;16.10;72.30;;;;;;2374756;56;21542;-75
2022/06/20 03:03:55;;;;;;;6.12;3.50;;;16.00;72.40;;;;;;2374788;56;21305;-75
2022/06/20 03:06:27;;;;;;;8.02;3.30;;;16.10;72.40;;;;;;2373968;56;21502;-75
2022/06/20 03:08:56;;;;;;;7.37;3.90;;;16.00;72.40;;;;;;2374011;56;21035;-75
2022/06/20 03:11:26;;;;;;;7.47;3.37;;;16.00;72.40;;;;;;2375243;56;21039;-75
2022/06/20 03:13:55;;;;;;;5.45;3.15;;;16.00;72.60;;;;;;2374360;56;21201;-75
2022/06/20 03:16:23;;;;;;;7.80;3.10;;;16.00;72.60;;;;;;2374780;56;21068;-75
2022/06/20 03:18:52;;;;;;;7.20;3.28;;;16.00;72.40;;;;;;2374681;56;21093;-75
2022/06/20 03:21:23;;;;;;;5.85;3.45;;;16.00;72.40;;;;;;2374937;56;21114;-76
2022/06/20 03:23:51;;;;;;;6.80;2.87;;;16.00;72.50;;;;;;2375333;56;21111;-76
2022/06/20 03:26:22;;;;;;;6.57;2.90;;;16.00;72.60;;;;;;2374039;56;21612;-75
2022/06/20 03:28:50;;;;;;;6.78;2.80;;;15.90;72.60;;;;;;2374847;56;21125;-76
2022/06/20 03:31:18;;;;;;;9.23;3.15;;;15.90;72.50;;;;;;2374858;56;21509;-76
2022/06/20 03:33:47;;;;;;;7.90;3.15;;;15.90;72.50;;;;;;2374187;56;21039;-75
2022/06/20 03:36:19;;;;;;;12.50;3.25;;;15.90;72.50;;;;;;2374404;56;21047;-76
2022/06/20 03:38:48;;;;;;;8.30;3.42;;;15.90;72.80;;;;;;2374225;56;21586;-75
2022/06/20 03:41:17;;;;;;;9.70;3.92;;;15.90;72.80;;;;;;2373529;56;21193;-74
2022/06/20 03:43:50;;;;;;;9.32;3.83;;;15.90;72.80;;;;;;2374748;56;21031;-75
2022/06/20 03:46:21;;;;;;;9.05;3.35;;;15.80;72.80;;;;;;2372799;56;21522;-75
2022/06/20 03:48:56;;;;;;;8.93;2.80;;;15.90;72.80;;;;;;2373309;56;21105;-75
2022/06/20 03:51:28;;;;;;;9.98;3.47;;;15.90;73.00;;;;;;2373311;56;21079;-75
2022/06/20 03:54:01;;;;;;;6.62;3.03;;;15.90;73.00;;;;;;2396618;52;21001;-76
2022/06/20 03:56:32;;;;;;;7.20;2.80;;;15.90;72.80;;;;;;2384137;56;21850;-76
2022/06/20 03:59:08;;;;;;;5.80;2.60;;;15.80;72.80;;;;;;2375163;56;21040;-75
2022/06/20 04:01:39;;;;;;;9.55;2.97;;;15.80;73.00;;;;;;2357158;57;21032;-73
2022/06/20 04:04:13;;;;;;;4.10;2.40;;;15.80;72.80;;;;;;2356656;57;21079;-75
2022/06/20 04:06:45;;;;;;;4.82;2.60;;;15.80;72.90;;;;;;2354835;57;21106;-77
2022/06/20 04:12:11;;;;;;;7.18;2.40;;;15.80;72.70;;;;;;2356730;57;20979;-76
2022/06/20 04:14:46;;;;;;;5.70;2.50;;;15.80;72.60;;;;;;2606249;53;21581;-76
2022/06/20 04:20:15;;;;;;;9.95;2.87;;;15.80;72.80;;;;;;2356375;57;21048;-76
2022/06/20 04:22:45;;;;;;;15.43;3.42;;;15.80;72.70;;;;;;2606683;53;21044;-75
2022/06/20 04:25:22;;;;;;;6.25;2.97;;;15.80;72.70;;;;;;2356643;57;21012;-76
2022/06/20 04:27:56;;;;;;;15.48;3.12;;;15.70;72.70;;;;;;2356844;57;21073;-77
2022/06/20 04:30:27;;;;;;;;;;;15.70;72.70;;;;;;2360628;57;21124;-76
2022/06/20 04:33:01;;;;;;;5.72;2.62;;;15.80;72.50;;;;;;2356453;57;20078;-76
2022/06/20 04:35:33;;;;;;;7.07;2.60;;;15.70;72.60;;;;;;2357001;57;21024;-76
2022/06/20 04:38:05;;;;;;;9.27;3.12;;;15.70;72.90;;;;;;2357575;57;21507;-76
2022/06/20 04:40:36;;;;;;;8.30;2.87;;;15.70;73.00;;;;;;2356408;57;21044;-75
2022/06/20 04:43:11;;;;;;;5.75;2.70;;;15.70;73.00;;;;;;2606856;53;21043;-76
2022/06/20 04:45:44;;;;;;;8.85;3.05;;;15.70;73.10;;;;;;2357506;57;21132;-76
2022/06/20 04:48:15;;;;;;;9.48;3.55;;;15.70;73.20;;;;;;2357566;57;21092;-76
2022/06/20 04:50:46;;;;;;;7.28;2.40;;;15.70;73.60;;;;;;2606562;53;22080;-76
2022/06/20 04:53:18;;;;;;;8.88;2.50;;;15.70;74.00;;;;;;2357110;57;21519;-75
2022/06/20 04:55:48;;;;;;;11.73;3.17;;;15.70;74.20;;;;;;2357139;57;21039;-76
2022/06/20 04:58:19;;;;;;;9.82;2.85;;;15.70;74.20;;;;;;2605515;52;21107;-76
2022/06/20 05:00:50;;;;;;;8.18;2.83;;;15.80;74.20;;;;;;2357048;57;21107;-74
2022/06/20 05:03:21;;;;;;;10.35;2.78;;;15.80;74.00;;;;;;2357431;57;21166;-76
2022/06/20 05:05:51;;;;;;;7.25;2.33;;;15.90;73.80;;;;;;2606265;53;21028;-76
2022/06/20 05:08:24;;;;;;;8.82;2.30;;;15.80;73.50;;;;;;2607179;52;21506;-76
2022/06/20 05:10:57;;;;;;;9.02;2.37;;;15.90;73.30;;;;;;2605228;53;21024;-74
2022/06/20 05:13:31;;;;;;;6.80;2.17;;;15.90;73.00;;;;;;2357407;57;21499;-76
2022/06/20 05:15:59;;;;;;;9.45;2.65;;;15.90;72.70;;;;;;2357460;57;21016;-76
2022/06/20 05:18:32;;;;;;;13.40;3.35;;;15.90;72.70;;;;;;2606032;52;21531;-73
2022/06/20 05:21:06;;;;;;;10.82;2.40;;;15.90;72.70;;;;;;2356701;57;21186;-76
2022/06/20 05:23:37;;;;;;;9.30;2.70;;;15.90;72.70;;;;;;2356189;57;21103;-75
2022/06/20 05:26:06;;;;;;;11.02;2.75;;;15.90;72.90;;;;;;2356895;57;21024;-76
2022/06/20 05:28:38;;;;;;;10.55;2.53;;;15.90;73.10;;;;;;2607007;52;21021;-80
2022/06/20 05:31:06;;;;;;;8.45;2.55;;;15.90;73.40;;;;;;2607007;53;21024;-74
2022/06/20 05:33:43;;;;;;;10.88;2.35;;;15.90;73.40;;;;;;2357110;57;21040;-75
2022/06/20 05:36:19;;;;;;;10.35;2.70;;;15.90;73.50;;;;;;2607052;53;21048;-75
2022/06/20 05:38:51;;;;;;;9.95;2.55;;;15.90;73.30;;;;;;2357219;57;21044;-75
2022/06/20 05:41:20;;;;;;;10.48;3.35;;;15.90;73.40;;;;;;2357492;57;21012;-75
2022/06/20 05:43:48;;;;;;;13.98;3.10;;;15.90;73.50;;;;;;2356562;57;21035;-74
2022/06/20 05:46:23;;;;;;;8.65;2.67;;;15.90;73.60;;;;;;2357092;57;21608;-75
2022/06/20 05:48:53;;;;;;;10.98;3.17;;;16.00;73.70;;;;;;2356877;57;21052;-73
2022/06/20 05:51:22;;;;;;;11.90;3.03;;;16.00;73.50;;;;;;2357319;57;21550;-75
2022/06/20 05:53:54;;;;;;;10.35;3.37;;;16.00;73.40;;;;;;2357577;57;21534;-76
2022/06/20 05:56:25;;;;;;;11.80;2.95;;;16.00;73.50;;;;;;2357031;57;21036;-75
2022/06/20 05:58:55;;;;;;;10.27;3.20;;;16.00;73.40;;;;;;2356904;57;21111;-74
2022/06/20 06:01:29;;;;;;;9.23;2.72;;;16.00;73.10;;;;;;2607121;53;21067;-76
2022/06/20 06:04:02;;;;;;;13.80;3.47;;;16.00;73.20;;;;;;2357201;57;21099;-75
2022/06/20 06:06:37;;;;;;;13.07;3.17;;;16.00;72.80;;;;;;2607018;53;21072;-75
2022/06/20 06:09:11;;;;;;;7.00;2.37;;;16.10;73.60;;;;;;2356890;57;21112;-75
2022/06/20 06:11:46;;;;;;;9.10;2.22;;;16.10;72.90;;;;;;2357611;57;21017;-75
2022/06/20 06:14:19;;;;;;;8.15;2.17;;;16.10;72.90;;;;;;2356583;57;22214;-76
2022/06/20 06:16:53;;;;;;;11.85;3.00;;;16.20;72.70;;;;;;2606383;53;21036;-75
2022/06/20 06:19:34;;;;;;;10.15;2.47;;;16.20;72.70;;;;;;2357171;57;21025;-75
2022/06/20 06:22:05;;;;;;;8.43;3.17;;;16.30;72.90;;;;;;2357039;57;21020;-75
2022/06/20 06:24:36;;;;;;;10.68;2.78;;;16.40;72.40;;;;;;2356899;57;21518;-75
2022/06/20 06:27:07;;;;;;;9.18;2.33;;;16.40;72.30;;;;;;2356264;57;21032;-75
2022/06/20 06:29:39;;;;;;;9.55;2.40;;;16.40;72.30;;;;;;2604673;52;21100;-75
2022/06/20 06:32:15;;;;;;;9.60;1.95;;;16.50;72.20;;;;;;2355006;57;21024;-77
2022/06/20 06:34:50;;;;;;;11.10;1.87;;;16.50;72.20;;;;;;2357046;57;21290;-74
2022/06/20 06:37:21;;;;;;;8.13;2.53;;;16.60;71.80;;;;;;2357392;57;21536;-75
2022/06/20 06:39:55;;;;;;;5.60;1.70;;;16.70;71.50;;;;;;2353743;57;21122;-75
2022/06/20 06:42:22;;;;;;;6.78;2.12;;;16.80;70.50;;;;;;2357329;57;21562;-76
2022/06/20 06:44:51;;;;;;;8.57;1.98;;;16.80;70.10;;;;;;2356488;57;21703;-75
2022/06/20 06:47:23;;;;;;;10.27;2.20;;;16.90;69.60;;;;;;2356693;57;21035;-75
2022/06/20 06:49:54;;;;;;;8.57;2.30;;;16.90;69.30;;;;;;2605701;52;21103;-76
2022/06/20 06:52:28;;;;;;;6.25;1.65;;;17.00;69.40;;;;;;2355594;57;21107;-74
2022/06/20 06:54:57;;;;;;;;;;;17.10;68.70;;;;;;2609622;52;21579;-75
2022/06/20 07:00:25;;;;;;;7.85;2.22;;;17.20;67.70;;;;;;2377150;56;22072;-74
2022/06/20 07:02:56;;;;;;;8.43;2.03;;;17.20;67.40;;;;;;2374891;56;21130;-73
2022/06/20 07:05:30;;;;;;;7.68;1.98;;;17.20;67.50;;;;;;2374313;56;21030;-73
2022/06/20 07:08:01;;;;;;;8.00;2.78;;;17.20;67.70;;;;;;2374370;56;21050;-75
2022/06/20 07:10:33;;;;;;;7.15;2.22;;;17.20;68.00;;;;;;2374487;56;21051;-74
2022/06/20 07:13:10;;;;;;;6.47;2.53;;;17.20;68.20;;;;;;2373780;56;21026;-73
2022/06/20 07:15:39;;;;;;;6.47;2.37;;;17.20;68.70;;;;;;2374617;56;21112;-77
2022/06/20 07:18:17;;;;;;;5.20;2.42;;;17.20;68.80;;;;;;2628691;52;21059;-75
2022/06/20 07:20:45;;;;;;;8.73;3.12;;;17.30;69.10;;;;;;2373287;56;21546;-75
2022/06/20 07:23:17;;;;;;;11.07;2.60;;;17.30;68.90;;;;;;2373542;56;21050;-75
2022/06/20 07:25:49;;;;;;;8.73;2.12;;;17.40;68.70;;;;;;2372597;56;21034;-74
2022/06/20 07:28:25;;;;;;;3.08;1.58;;;17.50;68.60;;;;;;2373340;56;21524;-76
2022/06/20 07:30:57;;;;;;;7.40;1.75;;;17.50;68.60;;;;;;2373103;56;21051;-75
2022/06/20 07:33:30;;;;;;;7.47;2.15;;;17.60;68.30;;;;;;2628272;52;21050;-74
2022/06/20 07:36:00;;;;;;;7.47;2.53;;;17.70;68.20;;;;;;2628004;52;21087;-75
2022/06/20 07:38:31;;;;;;;4.47;1.62;;;17.80;67.90;;;;;;2374061;56;21051;-75
2022/06/20 07:41:02;;;;;;;2.25;1.23;;;17.80;67.10;;;;;;2374729;56;21660;-75
2022/06/20 07:43:35;;;;;;;4.35;1.60;;;17.90;66.20;;;;;;2374874;56;21058;-75
2022/06/20 07:48:43;;;;;;;3.97;1.20;;;17.90;64.50;;;;;;2348675;57;22095;-75
2022/06/20 07:51:15;;;;;;;3.22;1.27;;;18.10;64.20;;;;;;2346585;57;21046;-76
2022/06/20 07:53:47;;;;;;;3.85;1.37;;;18.10;63.50;;;;;;2346868;57;21639;-75
2022/06/20 07:56:19;;;;;;;3.58;1.42;;;18.20;63.20;;;;;;2346519;57;21058;-76
2022/06/20 07:58:54;;;;;;;4.10;1.45;;;18.30;63.10;;;;;;2346711;57;21109;-74
2022/06/20 08:01:28;;;;;;;3.58;1.83;;;18.30;62.70;;;;;;2347387;57;21101;-75
2022/06/20 08:04:01;;;;;;;2.05;1.20;;;18.40;62.10;;;;;;2347240;57;21591;-75
2022/06/20 08:06:35;;;;;;;5.30;1.42;;;18.50;61.60;;;;;;2595014;53;21101;-73
2022/06/20 08:09:07;;;;;;;2.28;1.00;;;18.50;61.40;;;;;;2346411;57;21523;-74
2022/06/20 08:11:42;;;;;;;5.25;1.45;;;18.60;61.70;;;;;;2346834;57;21109;-75
2022/06/20 08:14:23;;;;;;;4.22;1.35;;;18.60;62.00;;;;;;2347716;57;21049;-74
2022/06/20 08:16:54;;;;;;;2.90;1.50;;;18.60;60.90;;;;;;2347707;57;21038;-74
2022/06/20 08:19:22;;;;;;;2.55;1.40;;;18.60;60.90;;;;;;2348155;57;21088;-74
2022/06/20 08:21:57;;;;;;;4.20;1.48;;;18.60;61.70;;;;;;2347157;57;21129;-74
2022/06/20 08:24:29;;;;;;;6.15;1.50;;;18.50;60.60;;;;;;2348158;57;21022;-74
2022/06/20 08:27:01;;;;;;;4.47;1.62;;;18.50;60.50;;;;;;2346664;57;21236;-75
2022/06/20 08:29:34;;;;;;;2.97;1.33;;;18.60;60.20;;;;;;2347626;57;21050;-75
2022/06/20 08:32:04;;;;;;;;;;;18.60;59.90;;;;;;2350535;57;21429;-74
2022/06/20 08:34:36;;;;;;;3.50;1.37;;;18.70;59.90;;;;;;2595352;53;20070;-75
2022/06/20 08:37:11;;;;;;;3.75;1.23;;;18.70;59.00;;;;;;2347248;57;21129;-75
2022/06/20 08:39:47;;;;;;;2.47;1.00;;;18.70;57.80;;;;;;2347715;57;21592;-75
2022/06/20 08:42:38;;;;;;;5.12;1.40;;;18.70;56.60;;;;;;2347316;57;21548;-75
2022/06/20 08:45:34;;;;;;;3.72;1.10;;;18.70;56.20;;;;;;2347457;57;21516;-74
2022/06/20 08:48:48;;;;;;;3.92;1.25;;;18.70;56.70;;;;;;2347399;57;21159;-74
2022/06/20 08:52:13;;;;;;;5.55;1.40;;;18.70;57.60;;;;;;2346403;57;21128;-75
2022/06/20 08:55:11;;;;;;;4.87;1.87;;;18.60;58.90;;;;;;2346368;57;21110;-75
2022/06/20 08:57:50;;;;;;;5.45;1.62;;;18.50;60.20;;;;;;2346804;57;21527;-73
2022/06/20 09:00:20;;;;;;;4.80;2.00;;;18.20;62.00;;;;;;2344718;57;21532;-73
2022/06/20 09:03:39;;;;;;;6.62;2.22;;;18.00;63.50;;;;;;2345514;57;21556;-74
2022/06/20 09:06:36;;;;;;;6.22;2.10;;;17.80;63.80;;;;;;2343829;57;21120;-74
2022/06/20 09:09:29;;;;;;;3.20;1.77;;;17.70;65.10;;;;;;2345066;57;21591;-74
2022/06/20 09:15:13;;;;;;;5.95;2.45;;;17.50;65.80;;;;;;2354606;57;22046;-73
2022/06/20 09:17:53;;;;;;;5.37;2.15;;;17.40;67.20;;;;;;2345814;57;21057;-73
2022/06/20 09:20:30;;;;;;;9.50;2.55;;;17.40;67.80;;;;;;2371261;56;21027;-73
2022/06/20 09:23:11;;;;;;;5.05;2.28;;;17.40;67.50;;;;;;2374311;56;21620;-75
2022/06/20 09:25:52;;;;;;;3.62;2.28;;;17.30;67.80;;;;;;2373795;56;21578;-75
2022/06/20 09:28:46;;;;;;;3.15;1.92;;;17.30;68.20;;;;;;2372358;56;21545;-73
2022/06/20 09:31:37;;;;;;;4.57;2.10;;;17.20;66.80;;;;;;2372714;56;21600;-73
2022/06/20 09:34:24;;;;;;;3.67;2.00;;;17.20;67.50;;;;;;2373605;56;21624;-75
2022/06/20 09:37:13;;;;;;;5.25;2.20;;;17.20;67.00;;;;;;2374064;56;21141;-73
2022/06/20 09:40:02;;;;;;;5.22;2.00;;;17.20;67.10;;;;;;2626668;52;21592;-72
2022/06/20 09:42:40;;;;;;;7.00;2.17;;;17.20;66.00;;;;;;2374067;56;21027;-73
2022/06/20 09:45:18;;;;;;;3.28;2.00;;;17.20;65.90;;;;;;2374439;56;22558;-72
2022/06/20 09:47:58;;;;;;;5.62;2.00;;;17.10;65.50;;;;;;2374684;56;21620;-73
2022/06/20 09:50:38;;;;;;;8.00;2.33;;;17.10;65.90;;;;;;2628558;52;21093;-73
2022/06/20 09:53:20;;;;;;;4.55;2.37;;;17.10;65.40;;;;;;2374390;56;21620;-73
2022/06/20 09:55:58;;;;;;;5.72;1.85;;;17.10;65.30;;;;;;2374487;56;21050;-73
2022/06/20 09:58:36;;;;;;;5.95;2.22;;;17.10;65.30;;;;;;2374571;56;21078;-75
2022/06/20 10:01:13;;;;;;;6.60;2.17;;;17.20;64.80;;;;;;2374925;56;21070;-73
2022/06/20 10:03:59;;;;;;;4.75;2.17;;;17.30;65.40;;;;;;2374513;56;21043;-74
2022/06/20 10:06:38;;;;;;;8.63;2.72;;;17.40;63.50;;;;;;2374532;56;21034;-73
2022/06/20 10:09:14;;;;;;;3.45;2.25;;;17.50;62.70;;;;;;2374479;56;21055;-73
2022/06/20 10:11:50;;;;;;;6.50;2.30;;;17.50;63.00;;;;;;2374285;56;21102;-74
2022/06/20 10:14:28;;;;;;;5.68;2.58;;;17.50;62.30;;;;;;2374062;56;21122;-73
2022/06/20 10:17:05;;;;;;;4.70;2.42;;;17.50;61.90;;;;;;2374579;56;21027;-73
2022/06/20 10:19:38;;;;;;;5.50;2.17;;;17.60;62.20;;;;;;2373226;56;21659;-73
2022/06/20 10:22:13;;;;;;;7.90;2.25;;;17.60;60.10;;;;;;2373897;56;21692;-73
2022/06/20 10:24:58;;;;;;;6.07;2.08;;;17.70;59.60;;;;;;2373112;56;21513;-73
2022/06/20 10:27:40;;;;;;;7.47;2.37;;;17.70;58.70;;;;;;2373582;56;21502;-73
2022/06/20 10:30:12;;;;;;;7.70;2.87;;;17.80;58.40;;;;;;2373257;56;21047;-74
2022/06/20 10:32:54;;;;;;;4.25;2.30;;;17.90;57.80;;;;;;2373890;56;21123;-73
2022/06/20 10:35:54;;;;;;;6.65;2.70;;;18.00;57.90;;;;;;2374047;56;21621;-73
2022/06/20 10:38:38;;;;;;;5.18;1.90;;;18.00;57.80;;;;;;2368476;56;21107;-73
2022/06/20 10:41:09;;;;;;;6.03;2.20;;;18.10;57.80;;;;;;2374263;56;21502;-73
2022/06/20 10:43:45;;;;;;;7.30;2.10;;;18.20;58.00;;;;;;2373620;56;21105;-73
2022/06/20 10:46:18;;;;;;;8.15;2.47;;;18.30;58.00;;;;;;2373660;56;21031;-73
2022/06/20 10:49:01;;;;;;;4.93;2.15;;;18.40;58.20;;;;;;2373766;56;21102;-74
2022/06/20 10:51:38;;;;;;;6.62;2.47;;;18.60;58.20;;;;;;2373678;56;21110;-73
2022/06/20 10:54:21;;;;;;;4.60;2.25;;;18.70;58.60;;;;;;2372396;56;21110;-73
2022/06/20 10:57:00;;;;;;;5.85;2.42;;;18.80;58.50;;;;;;2373285;56;21059;-75
2022/06/20 10:59:45;;;;;;;5.53;2.37;;;19.00;57.90;;;;;;2374258;56;21636;-73
2022/06/20 11:02:29;;;;;;;4.18;2.17;;;19.10;56.60;;;;;;2373895;56;21071;-73
2022/06/20 11:05:05;;;;;;;;;;;19.20;54.30;;;;;;2377645;56;21107;-74
2022/06/20 11:07:39;;;;;;;6.28;1.83;;;19.30;53.50;;;;;;2628545;52;20065;-74
2022/06/20 11:10:20;;;;;;;5.25;1.85;;;19.40;53.40;;;;;;2374163;56;21034;-74
2022/06/20 11:12:56;;;;;;;7.12;1.92;;;19.40;53.30;;;;;;2374865;56;21035;-74
2022/06/20 11:15:34;;;;;;;3.85;2.10;;;19.30;53.10;;;;;;2373774;56;21035;-74
2022/06/20 11:18:12;;;;;;;6.78;2.47;;;19.20;53.00;;;;;;2374695;56;21055;-75
2022/06/20 11:20:44;;;;;;;5.68;2.08;;;19.20;53.20;;;;;;2372904;56;21050;-73
2022/06/20 11:23:17;;;;;;;7.75;2.33;;;19.30;53.70;;;;;;2374566;56;21102;-74
2022/06/20 11:25:57;;;;;;;8.13;2.33;;;19.40;54.60;;;;;;2374687;56;21059;-74
2022/06/20 11:28:48;;;;;;;6.15;2.08;;;19.60;54.10;;;;;;2374485;56;21042;-75
2022/06/20 11:31:23;;;;;;;7.57;2.28;;;19.70;52.50;;;;;;2373937;56;21668;-74
2022/06/20 11:34:02;;;;;;;5.28;2.17;;;19.80;51.40;;;;;;2374700;56;21031;-74
2022/06/20 11:36:39;;;;;;;5.00;1.95;;;19.80;51.70;;;;;;2373149;56;21632;-74
2022/06/20 11:39:20;;;;;;;9.25;2.28;;;19.90;51.50;;;;;;2373883;56;21138;-74
2022/06/20 11:41:52;;;;;;;5.00;1.80;;;19.90;49.90;;;;;;2373782;56;21067;-74
2022/06/20 11:44:46;;;;;;;5.32;1.67;;;20.00;50.10;;;;;;2374246;56;21043;-74
2022/06/20 11:47:41;;;;;;;4.87;2.10;;;20.10;50.00;;;;;;2373684;56;21039;-74
2022/06/20 11:50:26;;;;;;;7.95;2.03;;;20.10;50.10;;;;;;2372744;56;21110;-73
2022/06/20 11:53:02;;;;;;;5.93;1.55;;;20.10;49.60;;;;;;2374209;56;21105;-73
2022/06/20 11:55:36;;;;;;;4.72;2.62;;;20.10;47.20;;;;;;2373077;56;21095;-74
2022/06/20 11:58:12;;;;;;;8.25;2.10;;;20.10;47.00;;;;;;2374002;56;21517;-73
2022/06/20 12:00:46;;;;;;;4.37;2.03;;;20.20;48.10;;;;;;2374179;56;21102;-73
2022/06/20 12:03:25;;;;;;;4.70;1.70;;;20.40;48.90;;;;;;2627486;52;21031;-74
2022/06/20 12:06:02;;;;;;;4.90;2.17;;;20.60;48.50;;;;;;2373477;56;21541;-74
2022/06/20 12:08:43;;;;;;;3.47;1.50;;;20.70;48.30;;;;;;2372928;56;21533;-74
2022/06/20 12:11:18;;;;;;;3.12;1.70;;;20.70;49.80;;;;;;2374207;56;21051;-73
2022/06/20 12:16:44;;;;;;;1.83;1.12;;;20.50;48.90;;;;;;2354798;57;22073;-73
2022/06/20 12:25:23;;;;;;;7.55;1.52;;;20.20;47.80;;;;;;2373063;56;20995;-75
2022/06/20 12:27:51;;;;;;;6.22;2.22;;;20.10;50.20;;;;;;2374234;56;21298;-75
2022/06/20 12:30:19;;;;;;;1.45;1.25;;;20.00;53.60;;;;;;2627769;52;21059;-75
2022/06/20 12:32:51;;;;;;;2.25;1.20;;;19.80;54.10;;;;;;2374626;56;21103;-73
2022/06/20 12:35:26;;;;;;;4.10;1.70;;;19.70;53.20;;;;;;2373634;56;21122;-77
2022/06/20 12:38:00;;;;;;;2.72;0.93;;;19.50;52.40;;;;;;2374105;56;21107;-74
2022/06/20 12:40:32;;;;;;;3.08;1.30;;;19.50;53.00;;;;;;2373621;56;21054;-74
2022/06/20 12:43:06;;;;;;;25.65;13.77;;;19.60;53.30;;;;;;2374652;56;21168;-74
2022/06/20 12:46:02;;;;;;;53.83;27.05;;;19.60;51.80;;;;;;2374408;56;21609;-74
2022/06/20 12:48:58;;;;;;;38.45;19.35;;;19.70;52.80;;;;;;2374429;56;21542;-74
2022/06/20 12:51:35;;;;;;;5.50;2.53;;;19.70;53.20;;;;;;2375004;56;21050;-75
2022/06/20 12:54:15;;;;;;;5.30;1.60;;;19.70;53.20;;;;;;2374723;56;21624;-74
2022/06/20 12:57:05;;;;;;;3.15;1.50;;;19.60;53.70;;;;;;2372200;56;21050;-73
2022/06/20 13:00:04;;;;;;;5.95;1.55;;;19.50;51.70;;;;;;2375061;56;21530;-74
2022/06/20 13:02:53;;;;;;;1.90;1.10;;;19.40;52.50;;;;;;2375025;56;21034;-75
2022/06/20 13:05:51;;;;;;;1.55;1.17;;;19.40;52.70;;;;;;2374387;56;21635;-74
2022/06/20 13:08:36;;;;;;;4.30;1.30;;;19.40;54.40;;;;;;2374553;56;21051;-75
2022/06/20 13:11:19;;;;;;;4.68;1.50;;;19.30;55.10;;;;;;2374683;56;21086;-73
2022/06/20 13:14:34;;;;;;;4.57;2.03;;;19.30;55.70;;;;;;2373634;56;21051;-75
2022/06/20 13:17:16;;;;;;;3.92;1.40;;;19.30;55.30;;;;;;2628196;52;21215;-74
2022/06/20 13:19:57;;;;;;;4.90;1.50;;;19.40;56.60;;;;;;2374447;56;21121;-75
2022/06/20 13:22:31;;;;;;;5.45;2.00;;;19.50;56.40;;;;;;2374569;56;21110;-74
2022/06/20 13:25:13;;;;;;;6.40;2.12;;;19.60;55.40;;;;;;2374737;56;21556;-74
2022/06/20 13:27:49;;;;;;;2.92;1.40;;;19.70;54.50;;;;;;2373647;56;21573;-74
2022/06/20 13:30:20;;;;;;;4.12;1.35;;;19.70;53.70;;;;;;2373462;56;21047;-73
2022/06/20 13:32:57;;;;;;;2.92;1.35;;;19.80;54.40;;;;;;2372671;56;21039;-74
2022/06/20 13:35:31;;;;;;;3.17;1.17;;;20.00;54.00;;;;;;2626616;52;21047;-73
2022/06/20 13:38:08;;;;;;;3.55;1.50;;;20.10;53.60;;;;;;2373962;56;21031;-75
2022/06/20 13:40:52;;;;;;;2.92;1.52;;;20.20;53.10;;;;;;2373775;56;21122;-74
2022/06/20 13:43:45;;;;;;;3.00;1.27;;;20.30;53.80;;;;;;2373942;56;21071;-74
2022/06/20 13:46:22;;;;;;;3.45;1.37;;;20.30;53.50;;;;;;2373246;56;21228;-74
2022/06/20 13:48:56;;;;;;;3.95;1.55;;;20.20;53.20;;;;;;2373514;56;21708;-74
2022/06/20 13:51:29;;;;;;;6.12;1.90;;;20.20;53.50;;;;;;2373136;56;21079;-73
2022/06/20 13:54:05;;;;;;;3.42;1.75;;;20.20;53.30;;;;;;2374040;56;21037;-75
2022/06/20 13:56:36;;;;;;;2.35;1.30;;;20.10;53.00;;;;;;2373703;56;21067;-74
2022/06/20 13:59:16;;;;;;;1.90;1.45;;;20.00;53.60;;;;;;2370933;56;21110;-74
2022/06/20 14:01:57;;;;;;;5.05;1.50;;;20.00;54.20;;;;;;2624755;52;21189;-75